createdAt,value
2023-05-03T00:00:23.583Z,500.00
2023-05-03T00:01:23.532Z,502.00
2023-05-03T00:02:23.639Z,504.00
2023-05-03T00:03:23.595Z,502.00
2023-05-03T00:04:23.565Z,499.00
2023-05-03T00:05:23.623Z,498.00
2023-05-03T00:06:23.543Z,498.00
2023-05-03T00:07:23.530Z,497.00
2023-05-03T00:08:23.598Z,498.00
2023-05-03T00:09:23.602Z,500.00
2023-05-03T00:10:23.600Z,501.00
2023-05-03T00:11:23.540Z,501.00
2023-05-03T00:12:23.577Z,501.00
2023-05-03T00:13:23.623Z,501.00
2023-05-03T00:14:23.569Z,499.00
2023-05-03T00:15:23.867Z,500.00
2023-05-03T00:16:23.678Z,500.00
2023-05-03T00:17:23.603Z,503.00
2023-05-03T00:18:23.596Z,505.00
2023-05-03T00:19:31.065Z,505.00
2023-05-03T00:20:24.668Z,504.00
2023-05-03T00:21:23.578Z,504.00
2023-05-03T00:22:23.576Z,504.00
2023-05-03T00:23:23.582Z,502.00
2023-05-03T00:24:23.535Z,501.00
2023-05-03T00:25:23.598Z,500.00
2023-05-03T00:26:23.560Z,500.00
2023-05-03T00:27:23.571Z,501.00
2023-05-03T00:28:23.546Z,501.00
2023-05-03T00:29:23.508Z,501.00
2023-05-03T00:30:23.527Z,501.00
2023-05-03T00:31:23.573Z,501.00
2023-05-03T00:32:23.595Z,501.00
2023-05-03T00:33:23.505Z,501.00
2023-05-03T00:34:24.397Z,500.00
2023-05-03T00:35:23.882Z,500.00
2023-05-03T00:36:23.477Z,499.00
2023-05-03T00:37:23.479Z,498.00
2023-05-03T00:38:23.490Z,498.00
2023-05-03T00:39:23.440Z,499.00
2023-05-03T00:40:23.512Z,499.00
2023-05-03T00:41:23.435Z,497.00
2023-05-03T00:42:23.434Z,497.00
2023-05-03T00:43:23.447Z,495.00
2023-05-03T00:44:23.432Z,495.00
2023-05-03T00:45:23.433Z,496.00
2023-05-03T00:46:23.472Z,496.00
2023-05-03T00:47:23.532Z,495.00
2023-05-03T00:48:23.419Z,493.00
2023-05-03T00:49:23.382Z,494.00
2023-05-03T00:50:23.407Z,494.00
2023-05-03T00:51:23.419Z,493.00
2023-05-03T00:52:23.366Z,492.00
2023-05-03T00:53:23.378Z,494.00
2023-05-03T00:54:23.341Z,494.00
2023-05-03T00:55:23.350Z,494.00
2023-05-03T00:56:23.383Z,495.00
2023-05-03T00:57:23.424Z,496.00
2023-05-03T00:58:23.432Z,495.00
2023-05-03T00:59:23.433Z,493.00
2023-05-03T01:00:23.436Z,494.00
2023-05-03T01:01:23.446Z,496.00
2023-05-03T01:02:23.522Z,497.00
2023-05-03T01:03:23.496Z,497.00
2023-05-03T01:04:23.542Z,497.00
2023-05-03T01:05:23.458Z,499.00
2023-05-03T01:06:23.894Z,497.00
2023-05-03T01:07:23.503Z,495.00
2023-05-03T01:08:23.532Z,497.00
2023-05-03T01:09:23.526Z,495.00
2023-05-03T01:10:23.577Z,494.00
2023-05-03T01:11:23.592Z,494.00
2023-05-03T01:12:23.618Z,493.00
2023-05-03T01:13:23.585Z,493.00
2023-05-03T01:14:23.640Z,493.00
2023-05-03T01:15:23.658Z,495.00
2023-05-03T01:16:23.652Z,497.00
2023-05-03T01:17:23.644Z,495.00
2023-05-03T01:18:23.704Z,493.00
2023-05-03T01:19:23.654Z,491.00
2023-05-03T01:20:23.706Z,491.00
2023-05-03T01:21:23.744Z,488.00
2023-05-03T01:22:23.725Z,488.00
2023-05-03T01:23:23.726Z,487.00
2023-05-03T01:24:23.755Z,486.00
2023-05-03T01:25:23.771Z,489.00
2023-05-03T01:26:23.826Z,490.00
2023-05-03T01:27:23.780Z,491.00
2023-05-03T01:28:23.834Z,490.00
2023-05-03T01:29:23.838Z,489.00
2023-05-03T01:30:23.845Z,489.00
2023-05-03T01:31:23.894Z,488.00
2023-05-03T01:32:23.904Z,487.00
2023-05-03T01:33:23.925Z,489.00
2023-05-03T01:34:23.919Z,487.00
2023-05-03T01:35:23.977Z,488.00
2023-05-03T01:36:23.991Z,486.00
2023-05-03T01:37:23.991Z,487.00
2023-05-03T01:38:23.976Z,489.00
2023-05-03T01:39:24.046Z,490.00
2023-05-03T01:40:24.044Z,488.00
2023-05-03T01:41:24.079Z,487.00
2023-05-03T01:42:24.088Z,485.00
2023-05-03T01:43:24.092Z,487.00
2023-05-03T01:44:24.084Z,488.00
2023-05-03T01:45:24.149Z,487.00
2023-05-03T01:46:24.216Z,488.00
2023-05-03T01:47:24.154Z,488.00
2023-05-03T01:48:24.162Z,488.00
2023-05-03T01:49:24.180Z,486.00
2023-05-03T01:50:24.168Z,486.00
2023-05-03T01:51:24.393Z,486.00
2023-05-03T01:52:24.246Z,486.00
2023-05-03T01:53:24.263Z,488.00
2023-05-03T01:54:24.307Z,488.00
2023-05-03T01:55:24.313Z,490.00
2023-05-03T01:56:24.419Z,488.00
2023-05-03T01:57:24.361Z,489.00
2023-05-03T01:58:24.335Z,490.00
2023-05-03T01:59:24.377Z,490.00
2023-05-03T02:00:24.387Z,489.00
2023-05-03T02:01:24.430Z,486.00
2023-05-03T02:02:24.503Z,483.00
2023-05-03T02:03:24.476Z,483.00
2023-05-03T02:04:24.545Z,484.00
2023-05-03T02:05:24.489Z,487.00
2023-05-03T02:06:24.528Z,488.00
2023-05-03T02:07:24.564Z,489.00
2023-05-03T02:08:24.540Z,490.00
2023-05-03T02:09:24.561Z,490.00
2023-05-03T02:10:24.624Z,490.00
2023-05-03T02:11:24.633Z,489.00
2023-05-03T02:12:24.635Z,487.00
2023-05-03T02:13:24.648Z,486.00
2023-05-03T02:14:24.662Z,485.00
2023-05-03T02:15:24.708Z,485.00
2023-05-03T02:16:24.966Z,486.00
2023-05-03T02:17:24.723Z,487.00
2023-05-03T02:18:24.780Z,487.00
2023-05-03T02:19:24.788Z,487.00
2023-05-03T02:20:24.791Z,487.00
2023-05-03T02:21:24.803Z,488.00
2023-05-03T02:22:24.805Z,488.00
2023-05-03T02:23:24.910Z,489.00
2023-05-03T02:24:24.847Z,488.00
2023-05-03T02:25:27.486Z,490.00
2023-05-03T02:26:24.874Z,490.00
2023-05-03T02:27:24.884Z,489.00
2023-05-03T02:28:24.841Z,489.00
2023-05-03T02:29:24.843Z,489.00
2023-05-03T02:30:24.864Z,491.00
2023-05-03T02:31:24.905Z,489.00
2023-05-03T02:32:24.923Z,490.00
2023-05-03T02:33:24.824Z,488.00
2023-05-03T02:34:24.812Z,490.00
2023-05-03T02:35:24.784Z,488.00
2023-05-03T02:36:24.806Z,489.00
2023-05-03T02:37:24.811Z,489.00
2023-05-03T02:38:24.775Z,490.00
2023-05-03T02:39:24.779Z,488.00
2023-05-03T02:40:24.765Z,487.00
2023-05-03T02:41:24.761Z,485.00
2023-05-03T02:42:24.779Z,486.00
2023-05-03T02:43:24.796Z,485.00
2023-05-03T02:44:24.755Z,483.00
2023-05-03T02:45:24.754Z,485.00
2023-05-03T02:46:24.779Z,485.00
2023-05-03T02:47:24.775Z,486.00
2023-05-03T02:48:24.733Z,485.00
2023-05-03T02:49:24.713Z,487.00
2023-05-03T02:50:24.727Z,487.00
2023-05-03T02:51:24.748Z,486.00
2023-05-03T02:52:24.700Z,487.00
2023-05-03T02:53:24.659Z,489.00
2023-05-03T02:54:24.703Z,489.00
2023-05-03T02:55:24.831Z,488.00
2023-05-03T02:56:24.657Z,488.00
2023-05-03T02:57:24.677Z,489.00
2023-05-03T02:58:24.638Z,490.00
2023-05-03T02:59:24.656Z,493.00
2023-05-03T03:00:25.417Z,494.00
2023-05-03T03:01:24.672Z,493.00
2023-05-03T03:02:24.746Z,494.00
2023-05-03T03:03:24.707Z,495.00
2023-05-03T03:04:24.626Z,495.00
2023-05-03T03:05:24.640Z,497.00
2023-05-03T03:06:24.678Z,493.00
2023-05-03T03:07:24.601Z,494.00
2023-05-03T03:08:24.625Z,495.00
2023-05-03T03:09:24.562Z,494.00
2023-05-03T03:10:24.595Z,491.00
2023-05-03T03:11:24.568Z,494.00
2023-05-03T03:12:24.552Z,493.00
2023-05-03T03:13:24.563Z,492.00
2023-05-03T03:14:24.561Z,492.00
2023-05-03T03:15:24.546Z,491.00
2023-05-03T03:16:24.531Z,490.00
2023-05-03T03:17:24.592Z,488.00
2023-05-03T03:18:24.573Z,487.00
2023-05-03T03:19:24.504Z,485.00
2023-05-03T03:20:24.529Z,486.00
2023-05-03T03:21:24.941Z,486.00
2023-05-03T03:22:24.507Z,485.00
2023-05-03T03:23:24.510Z,485.00
2023-05-03T03:24:24.521Z,482.00
2023-05-03T03:25:24.517Z,480.00
2023-05-03T03:26:24.455Z,484.00
2023-05-03T03:27:24.474Z,484.00
2023-05-03T03:28:24.452Z,484.00
2023-05-03T03:29:24.450Z,483.00
2023-05-03T03:30:24.425Z,483.00
2023-05-03T03:31:24.491Z,483.00
2023-05-03T03:32:24.395Z,485.00
2023-05-03T03:33:24.755Z,484.00
2023-05-03T03:34:24.407Z,484.00
2023-05-03T03:35:24.380Z,486.00
2023-05-03T03:36:24.393Z,486.00
2023-05-03T03:37:24.397Z,486.00
2023-05-03T03:38:24.349Z,487.00
2023-05-03T03:39:24.421Z,486.00
2023-05-03T03:40:24.458Z,486.00
2023-05-03T03:41:24.486Z,483.00
2023-05-03T03:42:24.535Z,482.00
2023-05-03T03:43:24.541Z,482.00
2023-05-03T03:44:24.559Z,484.00
2023-05-03T03:45:24.589Z,484.00
2023-05-03T03:46:25.038Z,483.00
2023-05-03T03:47:24.702Z,484.00
2023-05-03T03:48:24.738Z,484.00
2023-05-03T03:49:24.729Z,484.00
2023-05-03T03:50:24.794Z,484.00
2023-05-03T03:51:24.805Z,483.00
2023-05-03T03:52:24.811Z,484.00
2023-05-03T03:53:24.813Z,485.00
2023-05-03T03:54:24.868Z,488.00
2023-05-03T03:55:24.887Z,490.00
2023-05-03T03:56:24.950Z,491.00
2023-05-03T03:57:24.981Z,491.00
2023-05-03T03:58:24.989Z,488.00
2023-05-03T03:59:25.052Z,488.00
2023-05-03T04:00:25.025Z,489.00
2023-05-03T04:01:25.090Z,493.00
2023-05-03T04:02:25.173Z,497.00
2023-05-03T04:03:25.201Z,500.00
2023-05-03T04:04:25.187Z,502.00
2023-05-03T04:05:25.191Z,504.00
2023-05-03T04:06:25.240Z,503.00
2023-05-03T04:07:25.253Z,503.00
2023-05-03T04:08:25.281Z,507.00
2023-05-03T04:09:25.284Z,511.00
2023-05-03T04:10:25.301Z,519.00
2023-05-03T04:11:25.357Z,538.00
2023-05-03T04:12:25.356Z,545.00
2023-05-03T04:13:25.383Z,549.00
2023-05-03T04:14:25.408Z,546.00
2023-05-03T04:15:25.413Z,546.00
2023-05-03T04:16:25.497Z,547.00
2023-05-03T04:17:25.461Z,552.00
2023-05-03T04:18:25.522Z,554.00
2023-05-03T04:19:25.546Z,557.00
2023-05-03T04:20:25.528Z,559.00
2023-05-03T04:21:25.611Z,561.00
2023-05-03T04:22:25.615Z,566.00
2023-05-03T04:23:25.621Z,573.00
2023-05-03T04:24:25.661Z,583.00
2023-05-03T04:25:25.695Z,587.00
2023-05-03T04:26:31.670Z,589.00
2023-05-03T04:27:26.665Z,591.00
2023-05-03T04:28:25.651Z,597.00
2023-05-03T04:29:25.638Z,600.00
2023-05-03T04:30:25.654Z,599.00
2023-05-03T04:31:26.013Z,594.00
2023-05-03T04:32:25.654Z,591.00
2023-05-03T04:33:25.619Z,589.00
2023-05-03T04:34:25.618Z,587.00
2023-05-03T04:35:25.645Z,587.00
2023-05-03T04:36:26.006Z,585.00
2023-05-03T04:37:25.569Z,583.00
2023-05-03T04:38:25.583Z,584.00
2023-05-03T04:39:25.597Z,582.00
2023-05-03T04:40:25.592Z,581.00
2023-05-03T04:41:25.588Z,583.00
2023-05-03T04:42:25.584Z,583.00
2023-05-03T04:43:25.554Z,584.00
2023-05-03T04:44:25.558Z,585.00
2023-05-03T04:45:25.538Z,585.00
2023-05-03T04:46:25.581Z,580.00
2023-05-03T04:47:25.610Z,580.00
2023-05-03T04:48:25.510Z,578.00
2023-05-03T04:49:25.518Z,576.00
2023-05-03T04:50:25.504Z,575.00
2023-05-03T04:51:25.508Z,572.00
2023-05-03T04:52:25.978Z,574.00
2023-05-03T04:53:25.478Z,572.00
2023-05-03T04:54:25.473Z,570.00
2023-05-03T04:55:25.508Z,567.00
2023-05-03T04:56:25.486Z,565.00
2023-05-03T04:57:25.980Z,562.00
2023-05-03T04:58:25.441Z,557.00
2023-05-03T04:59:25.460Z,551.00
2023-05-03T05:00:25.489Z,548.00
2023-05-03T05:01:25.482Z,546.00
2023-05-03T05:02:25.482Z,544.00
2023-05-03T05:03:25.519Z,542.00
2023-05-03T05:04:25.498Z,540.00
2023-05-03T05:05:25.521Z,539.00
2023-05-03T05:06:25.616Z,537.00
2023-05-03T05:07:25.549Z,536.00
2023-05-03T05:08:25.571Z,533.00
2023-05-03T05:09:25.591Z,529.00
2023-05-03T05:10:25.605Z,527.00
2023-05-03T05:11:25.641Z,525.00
2023-05-03T05:12:25.705Z,522.00
2023-05-03T05:13:25.695Z,521.00
2023-05-03T05:14:25.715Z,518.00
2023-05-03T05:15:25.762Z,516.00
2023-05-03T05:16:25.861Z,512.00
2023-05-03T05:17:26.041Z,512.00
2023-05-03T05:18:25.970Z,510.00
2023-05-03T05:19:25.989Z,509.00
2023-05-03T05:20:26.021Z,505.00
2023-05-03T05:21:26.119Z,504.00
2023-05-03T05:22:26.460Z,502.00
2023-05-03T05:23:26.163Z,499.00
2023-05-03T05:24:26.241Z,498.00
2023-05-03T05:25:26.298Z,499.00
2023-05-03T05:26:26.325Z,498.00
2023-05-03T05:27:27.130Z,498.00
2023-05-03T05:28:26.454Z,498.00
2023-05-03T05:29:26.474Z,497.00
2023-05-03T05:30:26.522Z,499.00
2023-05-03T05:31:26.632Z,500.00
2023-05-03T05:32:26.634Z,501.00
2023-05-03T05:33:26.781Z,501.00
2023-05-03T05:34:26.760Z,501.00
2023-05-03T05:35:26.815Z,501.00
2023-05-03T05:36:26.873Z,500.00
2023-05-03T05:37:26.943Z,501.00
2023-05-03T05:38:26.995Z,500.00
2023-05-03T05:39:27.050Z,500.00
2023-05-03T05:40:27.142Z,500.00
2023-05-03T05:41:27.237Z,499.00
2023-05-03T05:42:27.499Z,499.00
2023-05-03T05:43:27.307Z,501.00
2023-05-03T05:44:28.969Z,500.00
2023-05-03T05:45:27.509Z,500.00
2023-05-03T05:46:27.556Z,500.00
2023-05-03T05:47:27.609Z,500.00
2023-05-03T05:48:27.631Z,506.00
2023-05-03T05:49:27.640Z,515.00
2023-05-03T05:50:27.751Z,520.00
2023-05-03T05:51:27.771Z,523.00
2023-05-03T05:52:27.814Z,523.00
2023-05-03T05:53:27.857Z,524.00
2023-05-03T05:54:28.709Z,524.00
2023-05-03T05:55:27.994Z,525.00
2023-05-03T05:56:28.082Z,528.00
2023-05-03T05:57:28.487Z,531.00
2023-05-03T05:58:28.185Z,537.00
2023-05-03T05:59:28.241Z,567.00
2023-05-03T06:00:28.350Z,649.00
2023-05-03T06:01:28.347Z,649.00
2023-05-03T06:02:28.520Z,647.00
2023-05-03T06:03:28.648Z,661.00
2023-05-03T06:04:28.528Z,711.00
2023-05-03T06:05:28.657Z,794.00
2023-05-03T06:06:28.665Z,823.00
2023-05-03T06:07:28.681Z,849.00
2023-05-03T06:08:28.713Z,876.00
2023-05-03T06:09:28.746Z,893.00
2023-05-03T06:10:28.818Z,899.00
2023-05-03T06:11:28.862Z,909.00
2023-05-03T06:12:28.862Z,916.00
2023-05-03T06:13:28.852Z,923.00
2023-05-03T06:14:28.904Z,936.00
2023-05-03T06:15:28.960Z,955.00
2023-05-03T06:16:29.007Z,976.00
2023-05-03T06:17:29.119Z,981.00
2023-05-03T06:18:29.012Z,990.00
2023-05-03T06:19:29.015Z,999.00
2023-05-03T06:20:29.063Z,1006.00
2023-05-03T06:21:29.038Z,1012.00
2023-05-03T06:22:29.011Z,1013.00
2023-05-03T06:23:29.079Z,1017.00
2023-05-03T06:24:29.070Z,1024.00
2023-05-03T06:25:29.000Z,1028.00
2023-05-03T06:26:29.007Z,1036.00
2023-05-03T06:27:29.045Z,1046.00
2023-05-03T06:28:29.055Z,1051.00
2023-05-03T06:29:29.049Z,1057.00
2023-05-03T06:30:29.100Z,1056.00
2023-05-03T06:31:29.138Z,1064.00
2023-05-03T06:32:29.553Z,1071.00
2023-05-03T06:33:29.113Z,1082.00
2023-05-03T06:34:29.131Z,1087.00
2023-05-03T06:35:29.283Z,1093.00
2023-05-03T06:36:29.233Z,1099.00
2023-05-03T06:37:29.310Z,1105.00
2023-05-03T06:38:29.353Z,1110.00
2023-05-03T06:39:29.427Z,1115.00
2023-05-03T06:40:29.479Z,1116.00
2023-05-03T06:41:29.650Z,1120.00
2023-05-03T06:42:30.024Z,1120.00
2023-05-03T06:43:29.679Z,1127.00
2023-05-03T06:44:29.749Z,1133.00
2023-05-03T06:45:29.818Z,1128.00
2023-05-03T06:46:30.609Z,1128.00
2023-05-03T06:47:29.972Z,1128.00
2023-05-03T06:48:30.078Z,1127.00
2023-05-03T06:49:30.074Z,1123.00
2023-05-03T06:50:30.127Z,1123.00
2023-05-03T06:51:30.127Z,1129.00
2023-05-03T06:52:30.175Z,1149.00
2023-05-03T06:53:30.221Z,1142.00
2023-05-03T06:54:30.344Z,1110.00
2023-05-03T06:55:30.355Z,996.00
2023-05-03T06:56:30.381Z,988.00
2023-05-03T06:57:30.598Z,994.00
2023-05-03T06:58:30.473Z,995.00
2023-05-03T06:59:30.530Z,1002.00
2023-05-03T07:00:30.597Z,1017.00
2023-05-03T07:01:30.642Z,1039.00
2023-05-03T07:02:30.825Z,1049.00
2023-05-03T07:03:30.812Z,1054.00
2023-05-03T07:04:30.836Z,1055.00
2023-05-03T07:05:31.551Z,1060.00
2023-05-03T07:06:37.799Z,1064.00
2023-05-03T07:07:31.964Z,1065.00
2023-05-03T07:08:30.918Z,1061.00
2023-05-03T07:09:42.161Z,1055.00
2023-05-03T07:10:31.967Z,1044.00
2023-05-03T07:11:30.866Z,1037.00
2023-05-03T07:12:30.877Z,1027.00
2023-05-03T07:13:30.872Z,1019.00
2023-05-03T07:14:30.885Z,1013.00
2023-05-03T07:15:30.901Z,1010.00
2023-05-03T07:16:30.909Z,1010.00
2023-05-03T07:17:30.936Z,1007.00
2023-05-03T07:18:30.892Z,1004.00
2023-05-03T07:19:30.902Z,1003.00
2023-05-03T07:20:30.922Z,1004.00
2023-05-03T07:21:31.039Z,1001.00
2023-05-03T07:22:31.039Z,995.00
2023-05-03T07:23:31.106Z,993.00
2023-05-03T07:24:31.162Z,1001.00
2023-05-03T07:25:31.254Z,1005.00
2023-05-03T07:26:31.284Z,1000.00
2023-05-03T07:27:31.336Z,1000.00
2023-05-03T07:28:31.409Z,1000.00
2023-05-03T07:29:31.434Z,995.00
2023-05-03T07:30:31.507Z,992.00
2023-05-03T07:31:31.557Z,991.00
2023-05-03T07:32:31.694Z,985.00
2023-05-03T07:33:31.711Z,987.00
2023-05-03T07:34:31.669Z,985.00
2023-05-03T07:35:31.757Z,983.00
2023-05-03T07:36:31.787Z,988.00
2023-05-03T07:37:31.868Z,984.00
2023-05-03T07:38:31.907Z,983.00
2023-05-03T07:39:31.974Z,986.00
2023-05-03T07:40:31.997Z,984.00
2023-05-03T07:41:32.039Z,986.00
2023-05-03T07:42:32.546Z,994.00
2023-05-03T07:43:32.103Z,998.00
2023-05-03T07:44:32.181Z,993.00
2023-05-03T07:45:32.266Z,992.00
2023-05-03T07:46:32.303Z,987.00
2023-05-03T07:47:32.400Z,993.00
2023-05-03T07:48:32.362Z,1044.00
2023-05-03T07:49:32.420Z,1039.00
2023-05-03T07:50:32.418Z,1045.00
2023-05-03T07:51:32.580Z,1050.00
2023-05-03T07:52:32.533Z,1091.00
2023-05-03T07:53:32.614Z,1087.00
2023-05-03T07:54:32.602Z,1091.00
2023-05-03T07:55:32.598Z,1149.00
2023-05-03T07:56:32.625Z,1164.00
2023-05-03T07:57:33.055Z,1179.00
2023-05-03T07:58:40.258Z,1192.00
2023-05-03T07:59:33.748Z,1198.00
2023-05-03T08:00:32.744Z,1209.00
2023-05-03T08:01:32.705Z,1218.00
2023-05-03T08:02:33.115Z,1228.00
2023-05-03T08:03:32.889Z,1232.00
2023-05-03T08:04:32.786Z,1233.00
2023-05-03T08:05:32.762Z,1239.00
2023-05-03T08:06:32.777Z,1244.00
2023-05-03T08:07:33.024Z,1247.00
2023-05-03T08:08:32.648Z,1259.00
2023-05-03T08:09:32.632Z,1264.00
2023-05-03T08:10:32.624Z,1264.00
2023-05-03T08:11:32.836Z,1264.00
2023-05-03T08:12:32.612Z,1265.00
2023-05-03T08:13:32.601Z,1267.00
2023-05-03T08:14:32.594Z,1267.00
2023-05-03T08:15:32.601Z,1265.00
2023-05-03T08:16:32.659Z,1264.00
2023-05-03T08:17:33.048Z,1264.00
2023-05-03T08:18:32.600Z,1262.00
2023-05-03T08:19:32.594Z,1262.00
2023-05-03T08:20:32.542Z,1264.00
2023-05-03T08:21:32.567Z,1270.00
2023-05-03T08:22:33.095Z,1277.00
2023-05-03T08:23:32.581Z,1283.00
2023-05-03T08:24:32.538Z,1283.00
2023-05-03T08:25:32.561Z,1285.00
2023-05-03T08:26:32.535Z,1284.00
2023-05-03T08:27:32.569Z,1287.00
2023-05-03T08:28:32.565Z,1286.00
2023-05-03T08:29:32.473Z,1288.00
2023-05-03T08:30:32.556Z,1292.00
2023-05-03T08:31:32.609Z,1294.00
2023-05-03T08:32:33.083Z,1295.00
2023-05-03T08:33:32.677Z,1297.00
2023-05-03T08:34:32.769Z,1295.00
2023-05-03T08:35:32.824Z,1289.00
2023-05-03T08:36:32.831Z,1288.00
2023-05-03T08:37:32.864Z,1290.00
2023-05-03T08:38:32.987Z,1292.00
2023-05-03T08:39:33.006Z,1295.00
2023-05-03T08:40:33.061Z,1290.00
2023-05-03T08:41:33.125Z,1281.00
2023-05-03T08:42:33.217Z,1273.00
2023-05-03T08:43:33.260Z,1277.00
2023-05-03T08:44:33.300Z,1279.00
2023-05-03T08:45:33.410Z,1266.00
2023-05-03T08:46:33.482Z,1251.00
2023-05-03T08:47:33.628Z,1158.00
2023-05-03T08:48:33.516Z,1137.00
2023-05-03T08:49:33.624Z,1109.00
2023-05-03T08:50:33.701Z,1078.00
2023-05-03T08:51:34.560Z,1033.00
2023-05-03T08:52:33.635Z,1012.00
2023-05-03T08:53:33.678Z,993.00
2023-05-03T08:54:33.658Z,975.00
2023-05-03T08:55:33.653Z,956.00
2023-05-03T08:56:33.709Z,933.00
2023-05-03T08:57:33.686Z,917.00
2023-05-03T08:58:33.693Z,903.00
2023-05-03T08:59:33.715Z,883.00
2023-05-03T09:00:33.770Z,867.00
2023-05-03T09:01:33.793Z,852.00
2023-05-03T09:02:33.853Z,836.00
2023-05-03T09:03:33.797Z,796.00
2023-05-03T09:04:33.872Z,786.00
2023-05-03T09:05:33.839Z,779.00
2023-05-03T09:06:33.892Z,769.00
2023-05-03T09:07:33.898Z,757.00
2023-05-03T09:08:33.895Z,746.00
2023-05-03T09:09:33.942Z,735.00
2023-05-03T09:10:33.990Z,726.00
2023-05-03T09:11:34.031Z,705.00
2023-05-03T09:12:34.045Z,693.00
2023-05-03T09:13:34.077Z,687.00
2023-05-03T09:14:34.087Z,680.00
2023-05-03T09:15:34.164Z,673.00
2023-05-03T09:16:34.266Z,668.00
2023-05-03T09:17:34.597Z,660.00
2023-05-03T09:18:34.282Z,650.00
2023-05-03T09:19:34.344Z,646.00
2023-05-03T09:20:34.352Z,637.00
2023-05-03T09:21:34.401Z,628.00
2023-05-03T09:22:34.566Z,616.00
2023-05-03T09:23:34.470Z,610.00
2023-05-03T09:24:34.535Z,605.00
2023-05-03T09:25:34.543Z,600.00
2023-05-03T09:26:37.116Z,594.00
2023-05-03T09:27:34.598Z,591.00
2023-05-03T09:28:34.557Z,586.00
2023-05-03T09:29:34.567Z,582.00
2023-05-03T09:30:34.533Z,576.00
2023-05-03T09:31:34.566Z,574.00
2023-05-03T09:32:34.522Z,570.00
2023-05-03T09:33:34.544Z,568.00
2023-05-03T09:34:34.521Z,564.00
2023-05-03T09:35:34.506Z,564.00
2023-05-03T09:36:34.507Z,562.00
2023-05-03T09:37:34.469Z,558.00
2023-05-03T09:38:34.483Z,553.00
2023-05-03T09:39:34.461Z,549.00
2023-05-03T09:40:34.463Z,547.00
2023-05-03T09:41:34.466Z,547.00
2023-05-03T09:42:34.422Z,543.00
2023-05-03T09:43:34.455Z,539.00
2023-05-03T09:44:34.407Z,534.00
2023-05-03T09:45:34.504Z,529.00
2023-05-03T09:46:34.540Z,525.00
2023-05-03T09:47:34.528Z,521.00
2023-05-03T09:48:34.396Z,523.00
2023-05-03T09:49:34.510Z,522.00
2023-05-03T09:50:34.409Z,519.00
2023-05-03T09:51:34.413Z,517.00
2023-05-03T09:52:34.377Z,514.00
2023-05-03T09:53:34.623Z,511.00
2023-05-03T09:54:34.388Z,509.00
2023-05-03T09:55:34.388Z,507.00
2023-05-03T09:56:34.365Z,506.00
2023-05-03T09:57:34.321Z,504.00
2023-05-03T09:58:34.365Z,504.00
2023-05-03T09:59:34.384Z,503.00
2023-05-03T10:00:34.336Z,504.00
2023-05-03T10:01:34.328Z,501.00
2023-05-03T10:02:34.362Z,500.00
2023-05-03T10:03:34.718Z,499.00
2023-05-03T10:04:34.309Z,498.00
2023-05-03T10:05:34.311Z,497.00
2023-05-03T10:06:34.384Z,496.00
2023-05-03T10:07:34.282Z,492.00
2023-05-03T10:08:34.277Z,490.00
2023-05-03T10:09:34.280Z,488.00
2023-05-03T10:10:34.246Z,489.00
2023-05-03T10:11:34.290Z,492.00
2023-05-03T10:12:34.261Z,492.00
2023-05-03T10:13:34.303Z,489.00
2023-05-03T10:14:34.323Z,489.00
2023-05-03T10:15:34.398Z,488.00
2023-05-03T10:16:34.448Z,487.00
2023-05-03T10:18:34.616Z,489.00
2023-05-03T10:19:34.522Z,489.00
2023-05-03T10:20:34.525Z,488.00
2023-05-03T10:21:34.519Z,486.00
2023-05-03T10:22:34.453Z,484.00
2023-05-03T10:23:34.668Z,483.00
2023-05-03T10:24:34.433Z,482.00
2023-05-03T10:25:34.471Z,485.00
2023-05-03T10:26:34.437Z,486.00
2023-05-03T10:27:34.470Z,485.00
2023-05-03T10:28:34.455Z,483.00
2023-05-03T10:29:34.432Z,484.00
2023-05-03T10:30:34.428Z,482.00
2023-05-03T10:31:34.422Z,486.00
2023-05-03T10:32:34.438Z,483.00
2023-05-03T10:33:34.374Z,483.00
2023-05-03T10:34:34.347Z,481.00
2023-05-03T10:35:34.365Z,481.00
2023-05-03T10:36:48.513Z,480.00
2023-05-03T10:37:35.358Z,480.00
2023-05-03T10:38:34.366Z,479.00
2023-05-03T10:39:34.335Z,480.00
2023-05-03T10:40:34.294Z,482.00
2023-05-03T10:41:34.375Z,492.00
2023-05-03T10:42:34.375Z,566.00
2023-05-03T10:43:34.301Z,561.00
2023-05-03T10:44:34.418Z,631.00
2023-05-03T10:45:34.323Z,640.00
2023-05-03T10:46:34.377Z,651.00
2023-05-03T10:47:34.335Z,668.00
2023-05-03T10:48:34.611Z,701.00
2023-05-03T10:49:34.306Z,759.00
2023-05-03T10:50:34.346Z,768.00
2023-05-03T10:51:34.387Z,770.00
2023-05-03T10:52:34.433Z,764.00
2023-05-03T10:53:34.455Z,697.00
2023-05-03T10:54:34.481Z,719.00
2023-05-03T10:55:34.548Z,723.00
2023-05-03T10:56:34.562Z,716.00
2023-05-03T10:57:34.596Z,710.00
2023-05-03T10:58:34.672Z,712.00
2023-05-03T10:59:34.670Z,702.00
2023-05-03T11:00:34.740Z,692.00
2023-05-03T11:01:34.825Z,688.00
2023-05-03T11:02:34.804Z,672.00
2023-05-03T11:03:34.878Z,678.00
2023-05-03T11:04:35.052Z,692.00
2023-05-03T11:05:35.013Z,708.00
2023-05-03T11:06:35.106Z,725.00
2023-05-03T11:07:35.069Z,744.00
2023-05-03T11:08:35.096Z,758.00
2023-05-03T11:09:35.129Z,767.00
2023-05-03T11:10:35.101Z,770.00
2023-05-03T11:11:35.155Z,772.00
2023-05-03T11:12:35.219Z,780.00
2023-05-03T11:13:35.239Z,784.00
2023-05-03T11:14:35.261Z,791.00
2023-05-03T11:15:35.306Z,804.00
2023-05-03T11:16:35.405Z,808.00
2023-05-03T11:17:35.433Z,817.00
2023-05-03T11:18:35.433Z,830.00
2023-05-03T11:19:35.437Z,838.00
2023-05-03T11:20:35.512Z,845.00
2023-05-03T11:21:36.116Z,848.00
2023-05-03T11:22:35.525Z,854.00
2023-05-03T11:23:35.598Z,846.00
2023-05-03T11:24:35.609Z,829.00
2023-05-03T11:25:35.646Z,828.00
2023-05-03T11:26:35.654Z,835.00
2023-05-03T11:27:35.694Z,840.00
2023-05-03T11:28:35.770Z,844.00
2023-05-03T11:29:35.736Z,849.00
2023-05-03T11:30:35.831Z,853.00
2023-05-03T11:31:35.915Z,856.00
2023-05-03T11:32:35.943Z,863.00
2023-05-03T11:33:35.943Z,868.00
2023-05-03T11:34:35.950Z,872.00
2023-05-03T11:35:35.917Z,883.00
2023-05-03T11:36:35.958Z,904.00
2023-05-03T11:37:36.045Z,949.00
2023-05-03T11:38:36.019Z,964.00
2023-05-03T11:39:36.079Z,956.00
2023-05-03T11:40:36.077Z,934.00
2023-05-03T11:41:36.063Z,901.00
2023-05-03T11:42:36.041Z,877.00
2023-05-03T11:43:36.134Z,863.00
2023-05-03T11:44:36.177Z,850.00
2023-05-03T11:45:36.172Z,830.00
2023-05-03T11:46:36.495Z,808.00
2023-05-03T11:47:36.247Z,789.00
2023-05-03T11:48:36.274Z,768.00
2023-05-03T11:49:36.253Z,757.00
2023-05-03T11:50:36.292Z,746.00
2023-05-03T11:51:36.346Z,728.00
2023-05-03T11:52:36.352Z,717.00
2023-05-03T11:53:36.380Z,703.00
2023-05-03T11:54:36.425Z,695.00
2023-05-03T11:55:36.463Z,689.00
2023-05-03T11:56:36.541Z,680.00
2023-05-03T11:57:36.662Z,669.00
2023-05-03T11:58:37.123Z,659.00
2023-05-03T11:59:36.643Z,649.00
2023-05-03T12:00:36.679Z,640.00
2023-05-03T12:01:36.898Z,631.00
2023-05-03T12:02:36.906Z,625.00
2023-05-03T12:03:36.986Z,620.00
2023-05-03T12:04:37.095Z,615.00
2023-05-03T12:05:37.055Z,609.00
2023-05-03T12:06:37.962Z,598.00
2023-05-03T12:07:37.562Z,588.00
2023-05-03T12:08:39.361Z,584.00
2023-05-03T12:09:37.261Z,580.00
2023-05-03T12:10:37.970Z,578.00
2023-05-03T12:11:38.829Z,578.00
2023-05-03T12:12:40.457Z,579.00
2023-05-03T12:13:39.825Z,576.00
2023-05-03T12:14:37.584Z,569.00
2023-05-03T12:15:37.300Z,567.00
2023-05-03T12:16:36.983Z,566.00
2023-05-03T12:17:38.290Z,563.00
2023-05-03T12:18:39.219Z,561.00
2023-05-03T12:19:38.722Z,562.00
2023-05-03T12:21:37.372Z,558.00
2023-05-03T12:22:37.115Z,555.00
2023-05-03T12:23:37.057Z,554.00
2023-05-03T12:24:39.229Z,551.00
2023-05-03T12:25:39.859Z,550.00
2023-05-03T12:26:37.941Z,551.00